createdAt,value
2023-03-29T00:02:30.537Z,3.71
2023-03-29T00:04:57.762Z,3.61
2023-03-29T00:07:26.466Z,3.51
2023-03-29T00:09:53.384Z,3.39
2023-03-29T00:12:20.519Z,3.27
2023-03-29T00:14:47.927Z,3.17
2023-03-29T00:17:14.881Z,3.12
2023-03-29T00:19:43.615Z,3.06
2023-03-29T00:22:10.929Z,3.01
2023-03-29T00:24:39.349Z,2.96
2023-03-29T00:27:06.443Z,2.92
2023-03-29T00:29:33.765Z,2.96
2023-03-29T00:32:00.916Z,2.87
2023-03-29T00:34:30.984Z,2.82
2023-03-29T00:36:58.184Z,2.74
2023-03-29T00:39:26.529Z,2.68
2023-03-29T00:41:56.828Z,2.68
2023-03-29T00:44:55.910Z,2.63
2023-03-29T00:47:26.551Z,2.58
2023-03-29T00:49:55.179Z,2.50
2023-03-29T00:52:22.761Z,2.50
2023-03-29T00:54:56.093Z,2.46
2023-03-29T00:57:29.185Z,2.41
2023-03-29T00:59:57.117Z,2.38
2023-03-29T01:02:28.248Z,2.34
2023-03-29T01:05:05.491Z,2.32
2023-03-29T01:07:38.149Z,2.26
2023-03-29T01:10:10.948Z,2.28
2023-03-29T01:12:43.703Z,2.22
2023-03-29T01:15:13.021Z,2.22
2023-03-29T01:17:43.671Z,2.19
2023-03-29T01:20:19.236Z,2.19
2023-03-29T01:23:14.093Z,2.18
2023-03-29T01:25:49.006Z,2.16
2023-03-29T01:28:21.299Z,2.12
2023-03-29T01:30:51.902Z,2.12
2023-03-29T01:33:23.573Z,2.05
2023-03-29T01:36:01.567Z,2.03
2023-03-29T01:38:32.071Z,2.01
2023-03-29T01:40:59.218Z,1.97
2023-03-29T01:43:34.422Z,1.90
2023-03-29T01:46:07.538Z,1.87
2023-03-29T01:48:42.743Z,1.83
2023-03-29T01:51:14.482Z,1.82
2023-03-29T01:53:46.297Z,1.77
2023-03-29T01:56:16.379Z,1.73
2023-03-29T01:58:49.128Z,1.70
2023-03-29T02:01:21.361Z,1.69
2023-03-29T02:03:51.300Z,1.68
2023-03-29T02:06:22.570Z,1.67
2023-03-29T02:08:51.305Z,1.63
2023-03-29T02:11:19.666Z,1.60
2023-03-29T02:13:48.105Z,1.59
2023-03-29T02:16:15.950Z,1.57
2023-03-29T02:18:45.250Z,1.51
2023-03-29T02:21:16.530Z,1.48
2023-03-29T02:23:46.708Z,1.46
2023-03-29T02:26:14.524Z,1.44
2023-03-29T02:28:42.350Z,1.42
2023-03-29T02:31:15.570Z,1.36
2023-03-29T02:33:48.161Z,1.32
2023-03-29T02:36:18.978Z,1.33
2023-03-29T02:38:46.371Z,1.30
2023-03-29T02:41:17.840Z,1.30
2023-03-29T02:43:47.665Z,1.31
2023-03-29T02:46:17.722Z,1.31
2023-03-29T02:48:48.459Z,1.32
2023-03-29T02:51:20.348Z,1.31
2023-03-29T02:53:52.057Z,1.34
2023-03-29T02:56:19.678Z,1.34
2023-03-29T02:58:46.597Z,1.32
2023-03-29T03:01:15.648Z,1.32
2023-03-29T03:03:42.982Z,1.34
2023-03-29T03:06:10.153Z,1.30
2023-03-29T03:08:37.533Z,1.28
2023-03-29T03:11:04.783Z,1.28
2023-03-29T03:13:32.193Z,1.26
2023-03-29T03:15:59.229Z,1.23
2023-03-29T03:18:27.745Z,1.22
2023-03-29T03:20:56.281Z,1.22
2023-03-29T03:23:25.023Z,1.21
2023-03-29T03:25:52.860Z,1.19
2023-03-29T03:28:22.174Z,1.18
2023-03-29T03:30:49.666Z,1.20
2023-03-29T03:33:35.829Z,1.17
2023-03-29T03:36:31.433Z,1.19
2023-03-29T03:38:59.030Z,1.23
2023-03-29T03:41:26.395Z,1.25
2023-03-29T03:43:54.024Z,1.27
2023-03-29T03:46:21.675Z,1.29
2023-03-29T03:48:50.723Z,1.30
2023-03-29T03:51:26.480Z,1.33
2023-03-29T03:53:53.405Z,1.36
2023-03-29T03:56:53.024Z,1.31
2023-03-29T03:59:34.097Z,1.34
2023-03-29T04:02:06.805Z,1.34
2023-03-29T04:04:37.654Z,1.33
2023-03-29T04:07:09.674Z,1.32
2023-03-29T04:09:47.562Z,1.28
2023-03-29T04:12:23.924Z,1.30
2023-03-29T04:14:51.397Z,1.30
2023-03-29T04:17:22.458Z,1.27
2023-03-29T04:20:06.865Z,1.22
2023-03-29T04:22:34.177Z,1.21
2023-03-29T04:25:01.213Z,1.22
2023-03-29T04:27:57.183Z,1.27
2023-03-29T04:30:40.425Z,1.27
2023-03-29T04:33:36.423Z,1.32
2023-03-29T04:36:06.356Z,1.37
2023-03-29T04:38:36.195Z,1.42
2023-03-29T04:41:05.018Z,1.47
2023-03-29T04:43:53.688Z,1.55
2023-03-29T04:46:28.290Z,1.62
2023-03-29T04:49:14.402Z,1.75
2023-03-29T04:51:47.861Z,1.86
2023-03-29T04:54:18.610Z,1.96
2023-03-29T04:57:14.722Z,2.10
2023-03-29T05:00:15.327Z,2.25
2023-03-29T05:03:17.213Z,2.48
2023-03-29T05:05:53.479Z,2.64
2023-03-29T05:08:22.791Z,2.74
2023-03-29T05:11:10.396Z,2.68
2023-03-29T05:13:38.043Z,2.76
2023-03-29T05:16:09.233Z,2.91
2023-03-29T05:18:39.562Z,2.98
2023-03-29T05:21:07.664Z,3.25
2023-03-29T05:23:38.322Z,3.58
2023-03-29T05:26:08.053Z,3.86
2023-03-29T05:28:35.263Z,4.15
2023-03-29T05:31:06.026Z,4.44
2023-03-29T05:33:35.548Z,4.70
2023-03-29T05:36:08.011Z,4.86
2023-03-29T05:38:39.817Z,5.15
2023-03-29T05:41:07.798Z,5.41
2023-03-29T05:43:35.234Z,5.62
2023-03-29T05:46:03.584Z,5.71
2023-03-29T05:48:32.837Z,5.95
2023-03-29T05:51:00.601Z,6.21
2023-03-29T05:53:28.371Z,6.28
2023-03-29T05:55:56.713Z,6.28
2023-03-29T05:58:28.512Z,6.41
2023-03-29T06:00:55.618Z,6.62
2023-03-29T06:03:36.950Z,6.88
2023-03-29T06:06:04.995Z,7.06
2023-03-29T06:08:35.149Z,7.25
2023-03-29T06:11:24.462Z,7.45
2023-03-29T06:14:13.878Z,7.52
2023-03-29T06:16:50.589Z,7.57
2023-03-29T06:19:18.792Z,7.64
2023-03-29T06:21:47.516Z,7.69
2023-03-29T06:24:19.424Z,7.77
2023-03-29T06:26:53.743Z,7.87
2023-03-29T06:29:20.884Z,7.92
2023-03-29T06:31:50.981Z,7.92
2023-03-29T06:34:38.570Z,7.94
2023-03-29T06:37:30.055Z,7.95
2023-03-29T06:40:09.400Z,8.09
2023-03-29T06:42:44.674Z,8.20
2023-03-29T06:45:33.673Z,8.19
2023-03-29T06:48:04.681Z,8.29
2023-03-29T06:50:32.410Z,8.20
2023-03-29T06:53:15.648Z,8.48
2023-03-29T06:55:44.759Z,8.65
2023-03-29T06:58:31.439Z,8.83
2023-03-29T07:01:04.561Z,9.02
2023-03-29T07:04:00.231Z,9.02
2023-03-29T07:06:33.752Z,8.97
2023-03-29T07:09:02.409Z,9.05
2023-03-29T07:11:44.784Z,9.01
2023-03-29T07:14:20.946Z,9.02
2023-03-29T07:16:48.838Z,9.06
2023-03-29T07:19:27.253Z,9.45
2023-03-29T07:22:05.176Z,9.64
2023-03-29T07:24:45.290Z,9.84
2023-03-29T07:27:13.096Z,10.06
2023-03-29T07:29:41.468Z,10.11
2023-03-29T07:32:08.873Z,10.05
2023-03-29T07:34:42.171Z,10.20
2023-03-29T07:37:14.101Z,10.25
2023-03-29T07:39:43.051Z,10.41
2023-03-29T07:42:28.926Z,10.51
2023-03-29T07:44:58.627Z,10.44
2023-03-29T07:47:30.629Z,10.49
2023-03-29T07:49:59.194Z,10.47
2023-03-29T07:52:28.608Z,10.63
2023-03-29T07:54:55.793Z,10.11
2023-03-29T07:57:45.813Z,9.91
2023-03-29T08:00:16.302Z,10.17
2023-03-29T08:02:53.535Z,10.34
2023-03-29T08:05:37.868Z,10.56
2023-03-29T08:08:11.354Z,10.76
2023-03-29T08:11:06.436Z,10.48
2023-03-29T08:13:43.528Z,10.02
2023-03-29T08:16:30.389Z,9.39
2023-03-29T08:19:08.311Z,9.64
2023-03-29T08:21:49.267Z,9.69
2023-03-29T08:24:19.739Z,10.03
2023-03-29T08:26:50.873Z,10.33
2023-03-29T08:29:20.111Z,10.38
2023-03-29T08:31:49.274Z,10.12
2023-03-29T08:34:16.297Z,10.18
2023-03-29T08:37:12.444Z,9.75
2023-03-29T08:39:43.500Z,9.36
2023-03-29T08:43:26.467Z,9.49
2023-03-29T08:46:22.367Z,9.20
2023-03-29T08:48:56.878Z,9.48
2023-03-29T08:51:29.459Z,9.26
2023-03-29T08:53:59.932Z,8.93
2023-03-29T08:56:36.097Z,8.66
2023-03-29T08:59:20.665Z,8.34
2023-03-29T09:01:50.043Z,8.12
2023-03-29T09:04:23.511Z,8.10
2023-03-29T09:07:02.697Z,8.11
2023-03-29T09:09:36.102Z,8.34
2023-03-29T09:12:22.948Z,8.86
2023-03-29T09:15:09.111Z,9.67
2023-03-29T09:17:49.575Z,10.20
2023-03-29T09:20:30.060Z,10.02
2023-03-29T09:23:12.497Z,9.99
2023-03-29T09:26:05.648Z,9.74
2023-03-29T09:28:59.624Z,9.35
2023-03-29T09:31:29.734Z,9.10
2023-03-29T09:33:59.413Z,8.81
2023-03-29T09:36:48.788Z,8.59
2023-03-29T09:39:16.773Z,8.52
2023-03-29T09:41:51.689Z,8.89
2023-03-29T09:44:30.769Z,9.05
2023-03-29T09:47:07.699Z,8.92
2023-03-29T09:49:40.171Z,8.71
2023-03-29T09:52:13.031Z,8.60
2023-03-29T09:54:44.464Z,8.62
2023-03-29T09:57:38.220Z,8.49
2023-03-29T10:00:10.746Z,8.39
2023-03-29T10:02:40.995Z,8.74
2023-03-29T10:05:16.397Z,8.95
2023-03-29T10:07:50.918Z,9.21
2023-03-29T10:10:23.915Z,9.53
2023-03-29T10:12:53.160Z,9.63
2023-03-29T10:15:29.378Z,9.36
2023-03-29T10:18:01.072Z,8.99
2023-03-29T10:20:28.171Z,8.38
2023-03-29T10:22:58.633Z,7.70
2023-03-29T10:25:28.849Z,7.25
2023-03-29T10:28:03.004Z,6.90
2023-03-29T10:30:35.087Z,6.74
2023-03-29T10:33:02.516Z,6.55
2023-03-29T10:35:31.968Z,6.60
2023-03-29T10:38:04.698Z,6.87
2023-03-29T10:40:33.878Z,7.31
2023-03-29T10:43:11.009Z,7.75
2023-03-29T10:45:39.388Z,7.87
2023-03-29T10:48:07.857Z,7.90
2023-03-29T10:50:38.202Z,7.90
2023-03-29T10:53:14.532Z,7.97
2023-03-29T10:55:51.754Z,8.40
2023-03-29T10:58:31.891Z,8.99
2023-03-29T11:00:59.133Z,9.16
2023-03-29T11:03:42.672Z,8.93
2023-03-29T11:06:18.397Z,8.56
2023-03-29T11:08:54.412Z,8.21
2023-03-29T11:11:41.284Z,7.91
2023-03-29T11:14:16.877Z,7.65
2023-03-29T11:16:52.842Z,7.60
2023-03-29T11:19:37.528Z,7.66
2023-03-29T11:22:10.370Z,7.25
2023-03-29T11:24:54.859Z,6.90
2023-03-29T11:27:33.417Z,7.06
2023-03-29T11:30:07.601Z,7.24
2023-03-29T11:32:42.029Z,7.27
2023-03-29T11:35:27.166Z,7.27
2023-03-29T11:38:01.563Z,7.48
2023-03-29T11:40:45.146Z,7.77
2023-03-29T11:43:17.191Z,8.50
2023-03-29T11:45:55.028Z,8.86
2023-03-29T11:48:27.579Z,8.90
2023-03-29T11:50:58.794Z,8.70
2023-03-29T11:53:31.621Z,8.47
2023-03-29T11:56:08.716Z,8.30
2023-03-29T11:58:39.401Z,8.07
2023-03-29T12:01:10.768Z,7.93
2023-03-29T12:03:44.752Z,8.35
2023-03-29T12:06:21.394Z,9.06
2023-03-29T12:08:53.600Z,9.20
2023-03-29T12:11:27.375Z,9.07
2023-03-29T12:13:58.770Z,8.93
2023-03-29T12:16:32.413Z,8.74
2023-03-29T12:19:04.526Z,8.56
2023-03-29T12:21:34.369Z,8.51
2023-03-29T12:24:02.666Z,8.50
2023-03-29T12:26:54.216Z,8.94
2023-03-29T12:29:35.811Z,9.28
2023-03-29T12:32:19.442Z,9.87
2023-03-29T12:35:11.687Z,10.64
2023-03-29T12:38:19.266Z,10.89
2023-03-29T12:41:12.140Z,10.66
2023-03-29T12:44:04.265Z,10.12
2023-03-29T12:46:37.053Z,10.22
2023-03-29T12:49:11.581Z,10.45
2023-03-29T12:51:42.026Z,10.38
2023-03-29T12:54:14.626Z,10.16
2023-03-29T12:56:54.636Z,9.82
2023-03-29T12:59:36.012Z,9.88
2023-03-29T13:02:24.468Z,9.96
2023-03-29T13:04:53.832Z,9.80
2023-03-29T13:07:31.167Z,9.66
2023-03-29T13:09:59.487Z,9.61
2023-03-29T13:12:30.207Z,9.50
2023-03-29T13:15:01.805Z,9.29
2023-03-29T13:17:37.082Z,9.34
2023-03-29T13:20:18.606Z,9.45
2023-03-29T13:22:57.979Z,9.43
2023-03-29T13:25:38.695Z,9.46
2023-03-29T13:28:13.325Z,9.47
2023-03-29T13:30:50.182Z,9.46
2023-03-29T13:33:49.846Z,9.45
2023-03-29T13:36:33.021Z,9.73
2023-03-29T13:39:05.385Z,9.84
2023-03-29T13:41:44.505Z,9.84
2023-03-29T13:44:26.054Z,9.82
2023-03-29T13:47:13.841Z,9.63
2023-03-29T13:49:43.170Z,9.56
2023-03-29T13:52:16.386Z,9.59
2023-03-29T13:54:50.115Z,9.76
2023-03-29T13:57:20.661Z,9.97
2023-03-29T13:59:54.684Z,9.81
2023-03-29T14:02:32.841Z,9.70
2023-03-29T14:05:02.348Z,9.62
2023-03-29T14:07:33.651Z,9.57
2023-03-29T14:10:01.492Z,9.60
2023-03-29T14:12:34.245Z,9.86
2023-03-29T14:15:04.922Z,9.95
2023-03-29T14:17:36.443Z,10.09
2023-03-29T14:20:09.165Z,10.08
2023-03-29T14:22:37.734Z,9.97
2023-03-29T14:25:13.451Z,9.80
2023-03-29T14:27:41.790Z,9.75
2023-03-29T14:30:26.138Z,9.68
2023-03-29T14:32:55.060Z,9.58
2023-03-29T14:35:28.671Z,9.65
2023-03-29T14:37:56.641Z,9.61
2023-03-29T14:40:24.492Z,9.59
2023-03-29T14:42:51.838Z,9.57
2023-03-29T14:45:23.366Z,9.57
2023-03-29T14:47:51.641Z,9.57
2023-03-29T14:50:25.216Z,9.58
2023-03-29T14:52:53.175Z,9.58
2023-03-29T14:55:23.848Z,9.57
2023-03-29T14:57:53.992Z,9.49
2023-03-29T15:00:26.867Z,9.36
2023-03-29T15:02:56.824Z,9.33
2023-03-29T15:05:37.578Z,9.26
2023-03-29T15:08:07.341Z,9.17
2023-03-29T15:10:36.703Z,9.05
2023-03-29T15:13:05.271Z,8.97
2023-03-29T15:15:34.899Z,8.97
2023-03-29T15:18:03.262Z,8.96
2023-03-29T15:20:35.627Z,8.99
2023-03-29T15:23:07.871Z,9.03
2023-03-29T15:25:36.633Z,8.98
2023-03-29T15:28:04.070Z,8.91
2023-03-29T15:30:34.980Z,8.86
2023-03-29T15:33:21.967Z,8.84
2023-03-29T15:35:53.967Z,8.89
2023-03-29T15:38:25.389Z,8.93
2023-03-29T15:41:01.407Z,8.90
2023-03-29T15:43:28.497Z,8.91
2023-03-29T15:45:55.478Z,8.89
2023-03-29T15:48:25.172Z,8.88
2023-03-29T15:50:54.664Z,8.89
2023-03-29T15:53:23.636Z,8.86
2023-03-29T15:55:55.786Z,8.85
2023-03-29T15:58:25.797Z,8.78
2023-03-29T16:00:56.780Z,8.75
2023-03-29T16:03:24.581Z,8.74
2023-03-29T16:05:54.309Z,8.68
2023-03-29T16:08:21.392Z,8.66
2023-03-29T16:10:49.244Z,8.63
2023-03-29T16:13:16.233Z,8.56
2023-03-29T16:15:43.431Z,8.51
2023-03-29T16:18:10.955Z,8.45
2023-03-29T16:20:38.381Z,8.45
2023-03-29T16:23:11.649Z,8.40
2023-03-29T16:25:40.058Z,8.35
2023-03-29T16:28:09.118Z,8.23
2023-03-29T16:30:37.535Z,8.15
2023-03-29T16:33:08.375Z,8.06
2023-03-29T16:35:37.935Z,7.96
2023-03-29T16:38:07.013Z,7.92
2023-03-29T16:40:34.487Z,7.86
2023-03-29T16:43:02.728Z,7.76
2023-03-29T16:45:29.728Z,7.71
2023-03-29T16:47:57.026Z,7.67
2023-03-29T16:50:24.269Z,7.60
2023-03-29T16:52:54.060Z,7.54
2023-03-29T16:55:22.457Z,7.45
2023-03-29T16:57:51.239Z,7.29
2023-03-29T17:00:20.333Z,7.17
2023-03-29T17:02:51.035Z,7.03
2023-03-29T17:05:19.042Z,6.94
2023-03-29T17:07:46.888Z,6.83
2023-03-29T17:10:14.466Z,6.67
2023-03-29T17:12:42.785Z,6.59
2023-03-29T17:15:10.461Z,6.44
2023-03-29T17:17:37.889Z,6.38
2023-03-29T17:20:08.755Z,6.33
2023-03-29T17:22:35.995Z,6.25
2023-03-29T17:25:03.902Z,6.14
2023-03-29T17:27:31.161Z,6.05
2023-03-29T17:29:59.516Z,5.95
2023-03-29T17:32:27.111Z,5.89
2023-03-29T17:34:54.131Z,5.82
2023-03-29T17:37:24.080Z,5.72
2023-03-29T17:39:51.265Z,5.67
2023-03-29T17:42:19.017Z,5.63
2023-03-29T17:44:45.919Z,5.60
2023-03-29T17:47:14.194Z,5.56
2023-03-29T17:49:41.387Z,5.49
2023-03-29T17:52:08.471Z,5.42
2023-03-29T17:54:35.767Z,5.36
2023-03-29T17:57:02.767Z,5.31
2023-03-29T17:59:29.721Z,5.19
2023-03-29T18:01:57.427Z,5.11
2023-03-29T18:04:26.016Z,5.01
2023-03-29T18:06:53.379Z,4.93
2023-03-29T18:09:20.307Z,4.67
2023-03-29T18:11:47.237Z,4.46
2023-03-29T18:14:14.314Z,4.33
2023-03-29T18:16:41.706Z,4.34
2023-03-29T18:19:10.675Z,4.28
2023-03-29T18:21:39.036Z,4.26
2023-03-29T18:24:06.359Z,4.28
2023-03-29T18:26:33.543Z,4.28
2023-03-29T18:29:00.749Z,4.25
2023-03-29T18:31:28.185Z,4.17
2023-03-29T18:33:55.336Z,4.13
2023-03-29T18:36:22.544Z,4.17
2023-03-29T18:38:53.592Z,4.18
2023-03-29T18:41:20.639Z,4.19
2023-03-29T18:43:47.822Z,4.16
2023-03-29T18:46:15.125Z,4.11
2023-03-29T18:48:42.393Z,4.04
2023-03-29T18:51:11.379Z,4.01
2023-03-29T18:53:39.246Z,3.95
2023-03-29T18:56:08.258Z,3.93
2023-03-29T18:58:35.307Z,3.91
2023-03-29T19:01:04.235Z,3.91
2023-03-29T19:03:31.610Z,3.90
2023-03-29T19:05:58.771Z,3.91
2023-03-29T19:08:26.342Z,3.91
2023-03-29T19:10:54.153Z,3.88
2023-03-29T19:13:22.482Z,3.84
2023-03-29T19:15:51.350Z,3.87
2023-03-29T19:18:18.266Z,3.86
2023-03-29T19:20:45.589Z,3.84
2023-03-29T19:23:12.654Z,3.79
2023-03-29T19:25:39.632Z,3.73
2023-03-29T19:28:06.582Z,3.70
2023-03-29T19:30:36.012Z,3.66
2023-03-29T19:33:03.118Z,3.60
2023-03-29T19:35:30.081Z,3.58
2023-03-29T19:37:57.050Z,3.58
2023-03-29T19:40:24.348Z,3.55
2023-03-29T19:42:51.314Z,3.47
2023-03-29T19:45:18.333Z,3.45
2023-03-29T19:47:47.825Z,3.44
2023-03-29T19:50:14.796Z,3.41
2023-03-29T19:52:42.030Z,3.40
2023-03-29T19:55:10.464Z,3.26
2023-03-29T19:57:37.665Z,3.23
2023-03-29T20:00:08.144Z,3.23
2023-03-29T20:02:39.375Z,3.20
2023-03-29T20:05:09.394Z,3.18
2023-03-29T20:07:36.702Z,3.19
2023-03-29T20:10:03.977Z,3.19
2023-03-29T20:12:30.964Z,3.14
2023-03-29T20:14:58.131Z,3.09
2023-03-29T20:17:25.232Z,3.07
2023-03-29T20:19:53.939Z,3.03
2023-03-29T20:22:26.016Z,3.00
2023-03-29T20:24:53.198Z,2.99
2023-03-29T20:27:21.450Z,2.96
2023-03-29T20:29:48.942Z,2.96
2023-03-29T20:32:16.281Z,2.98
2023-03-29T20:34:43.200Z,2.84
2023-03-29T20:37:10.620Z,2.53
2023-03-29T20:39:39.060Z,2.34
2023-03-29T20:42:06.540Z,2.27
2023-03-29T20:44:35.222Z,2.31
2023-03-29T20:47:03.446Z,2.33
2023-03-29T20:49:37.029Z,2.31
2023-03-29T20:52:08.091Z,2.28
2023-03-29T20:54:35.209Z,2.28
2023-03-29T20:57:03.981Z,2.28
2023-03-29T20:59:31.317Z,2.21
2023-03-29T21:02:00.193Z,2.12
2023-03-29T21:04:27.782Z,2.12
2023-03-29T21:06:56.169Z,2.06
2023-03-29T21:09:24.081Z,1.99
2023-03-29T21:11:52.424Z,1.92
2023-03-29T21:14:21.285Z,1.91
2023-03-29T21:16:48.817Z,1.92
2023-03-29T21:19:16.740Z,1.93
2023-03-29T21:21:45.002Z,1.93
2023-03-29T21:24:13.820Z,1.92
2023-03-29T21:26:41.194Z,1.92
2023-03-29T21:29:08.196Z,1.89
2023-03-29T21:31:36.648Z,1.86
2023-03-29T21:34:03.615Z,1.80
2023-03-29T21:36:30.592Z,1.77
2023-03-29T21:38:57.673Z,1.76
2023-03-29T21:41:24.626Z,1.74
2023-03-29T21:43:51.597Z,1.72
2023-03-29T21:46:18.811Z,1.70
2023-03-29T21:48:47.134Z,1.67
2023-03-29T21:51:14.342Z,1.66
2023-03-29T21:53:41.507Z,1.63
2023-03-29T21:56:09.089Z,1.57
2023-03-29T21:58:36.068Z,1.47
2023-03-29T22:01:05.107Z,1.41
2023-03-29T22:03:32.287Z,1.17
2023-03-29T22:06:03.213Z,1.11
2023-03-29T22:08:30.821Z,1.13
2023-03-29T22:10:57.928Z,1.13
2023-03-29T22:13:26.971Z,1.14
2023-03-29T22:15:58.733Z,1.10
2023-03-29T22:18:26.312Z,1.04
2023-03-29T22:20:53.859Z,1.03
2023-03-29T22:23:23.049Z,1.00
2023-03-29T22:25:49.960Z,1.00
2023-03-29T22:28:16.993Z,0.97
2023-03-29T22:30:44.241Z,0.94
2023-03-29T22:33:11.208Z,0.93
2023-03-29T22:35:38.142Z,0.91
2023-03-29T22:38:05.103Z,0.89
2023-03-29T22:40:33.510Z,0.86
2023-03-29T22:43:01.668Z,0.77
2023-03-29T22:45:29.601Z,0.68
2023-03-29T22:47:56.662Z,0.68
2023-03-29T22:50:23.604Z,0.71
2023-03-29T22:52:50.529Z,0.69
2023-03-29T22:55:17.570Z,0.70
2023-03-29T22:57:46.078Z,0.72
2023-03-29T23:00:13.773Z,0.72
2023-03-29T23:02:40.868Z,0.70
2023-03-29T23:05:08.732Z,0.65
2023-03-29T23:07:36.698Z,0.59
2023-03-29T23:10:05.334Z,0.57
2023-03-29T23:12:32.491Z,0.58
2023-03-29T23:15:00.782Z,0.58
2023-03-29T23:17:27.994Z,0.55
2023-03-29T23:19:54.945Z,0.49
2023-03-29T23:22:22.642Z,0.43
2023-03-29T23:24:49.774Z,0.38
2023-03-29T23:27:16.694Z,0.32
2023-03-29T23:29:45.197Z,0.29
2023-03-29T23:32:14.202Z,0.25
2023-03-29T23:34:41.356Z,0.19
2023-03-29T23:37:08.329Z,0.12
2023-03-29T23:39:35.730Z,0.06
2023-03-29T23:42:03.486Z,0.03
2023-03-29T23:44:30.631Z,-0.03
2023-03-29T23:46:57.639Z,-0.07
2023-03-29T23:49:26.002Z,-0.13
2023-03-29T23:51:52.956Z,-0.16
2023-03-29T23:54:19.927Z,-0.22
2023-03-29T23:56:46.876Z,-0.23
2023-03-29T23:59:13.804Z,-0.28
